Terminal Aerodrome Forecast
Issued by NWS

Home | Current Version | Previous Version | Text Only | Print | Product List | Glossary On
Versions: 1 2 3 4 5 6 7 8 9 10 11 12 13 14 15 16 17 18
000
FTUS42 KTBW 281510 AAA
TAFPIE
TAF AMD
KPIE 281510Z 2815/2912 05006KT P6SM FEW025 SCT250
     FM281700 03006KT P6SM SCT035 SCT250
     FM282000 03006KT P6SM VCTS SCT025CB BKN050
     FM282300 06007KT P6SM VCTS SCT025CB BKN050
     FM290300 10005KT P6SM SCT050 SCT250=

USA.gov is the U.S. government's official web portal to all federal, state and local government web resources and services.